createdAt,value
2023-04-17T00:01:41.919Z,2.20
2023-04-17T00:04:13.087Z,2.42
2023-04-17T00:06:44.693Z,2.80
2023-04-17T00:09:14.457Z,2.65
2023-04-17T00:11:45.501Z,3.55
2023-04-17T00:14:15.012Z,3.20
2023-04-17T00:16:44.544Z,3.70
2023-04-17T00:19:14.094Z,4.28
2023-04-17T00:21:43.545Z,3.15
2023-04-17T00:24:13.762Z,3.35
2023-04-17T00:26:44.580Z,5.57
2023-04-17T00:29:14.152Z,2.92
2023-04-17T00:31:43.776Z,3.38
2023-04-17T00:34:13.249Z,3.22
2023-04-17T00:36:42.964Z,3.08
2023-04-17T00:39:13.112Z,3.72
2023-04-17T00:41:44.186Z,3.10
2023-04-17T00:44:13.894Z,2.60
2023-04-17T00:46:43.462Z,3.15
2023-04-17T00:49:13.426Z,3.30
2023-04-17T00:51:43.105Z,3.50
2023-04-17T00:54:13.609Z,2.78
2023-04-17T00:56:45.985Z,2.95
2023-04-17T00:59:19.328Z,3.75
2023-04-17T01:01:49.383Z,3.70
2023-04-17T01:04:19.311Z,3.75
2023-04-17T01:06:49.282Z,3.25
2023-04-17T01:09:18.908Z,3.40
2023-04-17T01:11:49.785Z,5.15
2023-04-17T01:14:19.503Z,4.22
2023-04-17T01:16:49.089Z,5.15
2023-04-17T01:19:18.969Z,4.82
2023-04-17T01:21:49.211Z,4.35
2023-04-17T01:24:20.327Z,5.70
2023-04-17T01:26:50.040Z,4.35
2023-04-17T01:29:22.106Z,3.67
2023-04-17T01:31:53.575Z,4.95
2023-04-17T01:34:23.177Z,4.38
2023-04-17T01:36:52.675Z,3.65
2023-04-17T01:39:23.597Z,4.22
2023-04-17T01:41:54.564Z,4.93
2023-04-17T01:44:24.202Z,4.40
2023-04-17T01:46:53.677Z,3.95
2023-04-17T01:49:24.775Z,4.53
2023-04-17T01:51:54.238Z,4.38
2023-04-17T01:54:25.231Z,4.95
2023-04-17T01:56:54.762Z,4.90
2023-04-17T01:59:24.702Z,4.65
2023-04-17T02:01:55.524Z,5.05
2023-04-17T02:04:25.247Z,5.65
2023-04-17T02:06:54.827Z,5.47
2023-04-17T02:09:25.917Z,5.18
2023-04-17T02:11:56.266Z,5.90
2023-04-17T02:14:26.652Z,7.03
2023-04-17T02:16:56.673Z,4.63
2023-04-17T02:19:26.267Z,6.50
2023-04-17T02:21:56.865Z,5.97
2023-04-17T02:24:28.099Z,6.43
2023-04-17T02:26:57.926Z,5.75
2023-04-17T02:29:27.411Z,4.80
2023-04-17T02:31:57.089Z,7.65
2023-04-17T02:34:27.233Z,7.05
2023-04-17T02:36:58.012Z,6.00
2023-04-17T02:39:29.296Z,5.55
2023-04-17T02:41:58.825Z,6.28
2023-04-17T02:44:28.388Z,4.82
2023-04-17T02:46:57.966Z,6.47
2023-04-17T02:49:28.972Z,6.45
2023-04-17T02:51:59.569Z,6.43
2023-04-17T02:54:30.410Z,8.13
2023-04-17T02:57:01.733Z,6.40
2023-04-17T02:59:31.284Z,6.10
2023-04-17T03:02:00.979Z,7.53
2023-04-17T03:04:30.784Z,7.43
2023-04-17T03:07:00.318Z,7.60
2023-04-17T03:09:32.115Z,7.50
2023-04-17T03:12:01.748Z,7.22
2023-04-17T03:14:31.354Z,8.07
2023-04-17T03:17:01.040Z,9.68
2023-04-17T03:19:30.737Z,8.48
2023-04-17T03:22:01.704Z,7.57
2023-04-17T03:24:33.768Z,7.90
2023-04-17T03:27:04.758Z,9.53
2023-04-17T03:29:40.906Z,8.57
2023-04-17T03:32:11.363Z,7.72
2023-04-17T03:34:41.009Z,10.13
2023-04-17T03:37:10.592Z,7.57
2023-04-17T03:39:42.043Z,7.90
2023-04-17T03:42:14.608Z,7.30
2023-04-17T03:44:44.173Z,9.55
2023-04-17T03:47:14.298Z,7.85
2023-04-17T03:49:44.219Z,8.68
2023-04-17T03:52:14.098Z,7.80
2023-04-17T03:54:45.727Z,7.03
2023-04-17T03:57:16.053Z,8.23
2023-04-17T03:59:46.271Z,9.15
2023-04-17T04:02:16.157Z,8.02
2023-04-17T04:04:48.156Z,7.28
2023-04-17T04:07:18.065Z,8.20
2023-04-17T04:09:49.138Z,7.63
2023-04-17T04:12:18.995Z,8.65
2023-04-17T04:14:48.851Z,9.88
2023-04-17T04:17:18.453Z,7.10
2023-04-17T04:19:49.198Z,9.32
2023-04-17T04:22:21.321Z,8.77
2023-04-17T04:24:57.577Z,7.78
2023-04-17T04:27:37.438Z,9.00
2023-04-17T04:30:10.639Z,10.02
2023-04-17T04:32:45.591Z,8.63
2023-04-17T04:35:16.813Z,8.90
2023-04-17T04:37:46.757Z,8.57
2023-04-17T04:40:18.167Z,7.72
2023-04-17T04:42:49.623Z,9.38
2023-04-17T04:45:24.549Z,7.40
2023-04-17T04:47:54.141Z,8.52
2023-04-17T04:50:23.721Z,8.15
2023-04-17T04:52:53.292Z,8.40
2023-04-17T04:55:36.255Z,8.10
2023-04-17T04:58:06.985Z,7.70
2023-04-17T05:00:38.411Z,7.93
2023-04-17T05:03:08.823Z,8.52
2023-04-17T05:05:38.646Z,7.50
2023-04-17T05:08:08.267Z,10.35
2023-04-17T05:10:40.767Z,8.07
2023-04-17T05:13:11.125Z,10.52
2023-04-17T05:15:41.351Z,8.82
2023-04-17T05:18:11.478Z,8.75
2023-04-17T05:20:42.518Z,8.85
2023-04-17T05:23:12.102Z,9.38
2023-04-17T05:25:43.074Z,8.95
2023-04-17T05:28:14.175Z,8.30
2023-04-17T05:30:46.443Z,9.90
2023-04-17T05:33:21.661Z,8.57
2023-04-17T05:35:56.074Z,10.23
2023-04-17T05:38:26.244Z,9.95
2023-04-17T05:40:57.206Z,9.52
2023-04-17T05:43:26.742Z,8.82
2023-04-17T05:45:57.215Z,9.82
2023-04-17T05:48:26.850Z,9.70
2023-04-17T05:50:56.424Z,11.75
2023-04-17T05:53:26.095Z,11.80
2023-04-17T05:58:32.320Z,11.13
2023-04-17T06:01:02.402Z,10.05
2023-04-17T06:03:32.121Z,10.30
2023-04-17T06:06:10.409Z,10.38
2023-04-17T06:08:40.175Z,10.40
2023-04-17T06:11:11.392Z,10.27
2023-04-17T06:13:40.875Z,10.82
2023-04-17T06:16:11.052Z,9.63
2023-04-17T06:18:42.974Z,11.73
2023-04-17T06:21:12.509Z,11.82
2023-04-17T06:23:42.186Z,11.63
2023-04-17T06:26:16.149Z,10.35
2023-04-17T06:28:45.703Z,13.30
2023-04-17T06:31:16.031Z,11.02
2023-04-17T06:33:45.939Z,9.65
2023-04-17T06:36:15.798Z,12.32
2023-04-17T06:38:49.868Z,10.27
2023-04-17T06:41:23.454Z,9.20
2023-04-17T06:43:53.074Z,12.45
2023-04-17T06:46:23.667Z,11.07
2023-04-17T06:48:57.839Z,13.65
2023-04-17T06:51:28.774Z,12.93
2023-04-17T06:53:59.324Z,13.35
2023-04-17T06:56:30.223Z,10.88
2023-04-17T06:59:00.769Z,11.23
2023-04-17T07:01:32.174Z,13.00
2023-04-17T07:04:02.173Z,12.63
2023-04-17T07:06:33.828Z,13.50
2023-04-17T07:09:03.705Z,14.00
2023-04-17T07:11:34.808Z,13.82
2023-04-17T07:14:04.575Z,13.52
2023-04-17T07:16:34.095Z,13.48
2023-04-17T07:19:03.744Z,14.23
2023-04-17T07:21:33.362Z,13.88
2023-04-17T07:24:02.845Z,13.85
2023-04-17T07:26:33.705Z,13.70
2023-04-17T07:29:03.323Z,17.77
2023-04-17T07:31:32.772Z,16.23
2023-04-17T07:34:02.351Z,15.27
2023-04-17T07:36:31.823Z,17.13
2023-04-17T07:39:01.489Z,18.00
2023-04-17T07:41:30.929Z,17.40
2023-04-17T07:44:03.301Z,16.80
2023-04-17T07:46:33.079Z,20.70
2023-04-17T07:49:02.612Z,21.92
2023-04-17T07:51:32.822Z,22.45
2023-04-17T07:54:03.593Z,23.38
2023-04-17T07:56:34.535Z,24.48
2023-04-17T07:59:05.464Z,21.38
2023-04-17T08:01:34.921Z,20.08
2023-04-17T08:04:04.570Z,24.00
2023-04-17T08:06:34.177Z,20.40
2023-04-17T08:09:04.191Z,20.52
2023-04-17T08:11:40.117Z,20.38
2023-04-17T08:14:17.450Z,20.23
2023-04-17T08:16:47.279Z,24.85
2023-04-17T08:19:17.060Z,20.45
2023-04-17T08:21:49.116Z,20.75
2023-04-17T08:24:19.872Z,19.92
2023-04-17T08:26:49.705Z,19.15
2023-04-17T08:29:20.681Z,18.17
2023-04-17T08:31:57.452Z,20.13
2023-04-17T08:34:37.577Z,18.35
2023-04-17T08:37:07.013Z,19.95
2023-04-17T08:39:36.723Z,17.75
2023-04-17T08:42:15.850Z,18.80
2023-04-17T08:44:48.665Z,17.60
2023-04-17T08:47:19.632Z,18.75
2023-04-17T08:49:50.550Z,18.00
2023-04-17T08:52:20.196Z,18.23
2023-04-17T08:54:51.362Z,17.50
2023-04-17T08:57:21.083Z,18.15
2023-04-17T08:59:51.961Z,17.60
2023-04-17T09:02:21.862Z,17.85
2023-04-17T09:04:51.894Z,19.48
2023-04-17T09:07:31.895Z,17.33
2023-04-17T09:10:01.440Z,18.30
2023-04-17T09:12:30.931Z,18.50
2023-04-17T09:15:16.310Z,18.75
2023-04-17T09:17:46.201Z,19.67
2023-04-17T09:20:17.369Z,17.90
2023-04-17T09:22:47.231Z,19.58
2023-04-17T09:25:18.587Z,18.75
2023-04-17T09:27:48.545Z,20.25
2023-04-17T09:30:19.541Z,20.20
2023-04-17T09:32:49.204Z,17.77
2023-04-17T09:35:26.909Z,16.77
2023-04-17T09:37:59.204Z,16.20
2023-04-17T09:40:38.872Z,16.97
2023-04-17T09:43:10.941Z,16.77
2023-04-17T09:45:44.570Z,15.65
2023-04-17T09:48:15.041Z,15.95
2023-04-17T09:50:45.218Z,17.98
2023-04-17T09:53:16.923Z,18.52
2023-04-17T09:55:48.014Z,19.27
2023-04-17T09:58:19.209Z,19.27
2023-04-17T10:00:50.167Z,19.05
2023-04-17T10:03:20.080Z,19.48
2023-04-17T10:05:49.999Z,18.88
2023-04-17T10:08:20.291Z,17.67
2023-04-17T10:10:52.255Z,19.55
2023-04-17T10:13:29.708Z,18.83
2023-04-17T10:16:02.302Z,19.83
2023-04-17T10:18:32.927Z,18.00
2023-04-17T10:21:23.192Z,17.52
2023-04-17T10:23:52.736Z,15.75
2023-04-17T10:26:46.532Z,15.93
2023-04-17T10:29:15.999Z,16.60
2023-04-17T10:32:28.934Z,16.05
2023-04-17T10:35:01.548Z,14.77
2023-04-17T10:38:08.120Z,13.55
2023-04-17T10:40:39.216Z,11.98
2023-04-17T10:43:14.876Z,11.05
2023-04-17T10:46:03.760Z,14.10
2023-04-17T10:48:38.212Z,12.73
2023-04-17T10:51:43.809Z,13.65
2023-04-17T10:54:15.867Z,13.57
2023-04-17T10:56:48.382Z,12.20
2023-04-17T10:59:20.754Z,13.60
2023-04-17T11:02:04.226Z,12.05
2023-04-17T11:04:36.656Z,11.52
2023-04-17T11:07:07.199Z,11.65
2023-04-17T11:09:36.853Z,11.77
2023-04-17T11:12:07.788Z,12.43
2023-04-17T11:14:43.076Z,13.20
2023-04-17T11:17:12.648Z,13.82
2023-04-17T11:19:45.150Z,13.68
2023-04-17T11:24:52.387Z,12.20
2023-04-17T11:29:52.985Z,12.95
2023-04-17T11:32:22.482Z,12.73
2023-04-17T11:34:56.585Z,14.48
2023-04-17T11:37:26.177Z,12.82
2023-04-17T11:40:05.811Z,12.45
2023-04-17T11:42:35.359Z,13.70
2023-04-17T11:45:08.314Z,12.60
2023-04-17T11:47:37.785Z,12.48
2023-04-17T11:50:10.039Z,11.88
2023-04-17T11:52:39.626Z,12.27
2023-04-17T11:55:11.007Z,11.82
2023-04-17T11:57:44.217Z,11.50
2023-04-17T12:00:16.309Z,11.65
2023-04-17T12:02:45.914Z,10.43
2023-04-17T12:05:18.573Z,10.20
2023-04-17T12:07:48.251Z,9.80
2023-04-17T12:10:17.869Z,10.57
2023-04-17T12:12:47.335Z,10.57
2023-04-17T12:15:17.097Z,10.02
2023-04-17T12:17:46.581Z,11.65
2023-04-17T12:20:20.518Z,10.15
2023-04-17T12:22:50.104Z,10.60
2023-04-17T12:25:19.606Z,9.02
2023-04-17T12:27:49.416Z,9.57
2023-04-17T12:30:19.068Z,10.40
2023-04-17T12:32:49.596Z,9.85
2023-04-17T12:35:21.197Z,9.10
2023-04-17T12:37:52.132Z,10.48
2023-04-17T12:40:24.814Z,9.77
2023-04-17T12:42:54.474Z,9.85
2023-04-17T12:45:23.935Z,9.85
2023-04-17T12:47:53.448Z,9.57
2023-04-17T12:50:24.509Z,9.18
2023-04-17T12:52:53.909Z,10.45
2023-04-17T12:55:25.301Z,10.00
2023-04-17T12:57:54.869Z,10.38
2023-04-17T13:00:24.889Z,10.10
2023-04-17T13:02:54.519Z,9.77
2023-04-17T13:05:25.600Z,10.40
2023-04-17T13:07:55.407Z,11.98
2023-04-17T13:10:25.493Z,10.93
2023-04-17T13:12:55.063Z,10.57
2023-04-17T13:15:24.484Z,9.85
2023-04-17T13:17:53.937Z,9.95
2023-04-17T13:20:25.049Z,10.73
2023-04-17T13:22:54.813Z,9.57
2023-04-17T13:25:24.289Z,10.27
2023-04-17T13:27:55.104Z,10.90
2023-04-17T13:30:25.083Z,9.57
2023-04-17T13:32:54.576Z,9.25
2023-04-17T13:35:25.506Z,12.35
2023-04-17T13:37:55.770Z,10.65
2023-04-17T13:40:25.227Z,11.40
2023-04-17T13:42:54.677Z,10.45
2023-04-17T13:45:24.152Z,9.57
2023-04-17T13:47:53.668Z,8.90
2023-04-17T13:50:24.514Z,8.52
2023-04-17T13:52:54.122Z,9.27
2023-04-17T13:55:23.625Z,9.77
2023-04-17T13:57:54.503Z,9.40
2023-04-17T14:00:25.087Z,10.32
2023-04-17T14:02:54.681Z,9.45
2023-04-17T14:05:25.847Z,9.55
2023-04-17T14:07:55.617Z,9.88
2023-04-17T14:10:25.124Z,10.30
2023-04-17T14:12:54.824Z,10.20
2023-04-17T14:15:24.464Z,11.13
2023-04-17T14:17:54.175Z,10.25
2023-04-17T14:20:25.121Z,10.52
2023-04-17T14:22:54.651Z,11.50
2023-04-17T14:25:24.266Z,10.13
2023-04-17T14:27:54.641Z,10.30
2023-04-17T14:30:24.404Z,11.32
2023-04-17T14:32:54.021Z,10.13
2023-04-17T14:35:25.233Z,6.88
2023-04-17T14:37:54.659Z,6.20
2023-04-17T14:40:24.164Z,5.57
2023-04-17T14:42:54.767Z,5.20
2023-04-17T14:45:24.786Z,6.93
2023-04-17T14:47:54.678Z,5.13
2023-04-17T14:50:25.758Z,5.38
2023-04-17T14:52:57.114Z,5.28
2023-04-17T14:55:26.687Z,5.35
2023-04-17T14:57:56.315Z,4.65
2023-04-17T15:00:26.021Z,5.30
2023-04-17T15:02:55.798Z,4.72
2023-04-17T15:05:27.127Z,3.97
2023-04-17T15:07:58.352Z,4.15
2023-04-17T15:10:32.384Z,4.00
2023-04-17T15:13:06.926Z,3.28
2023-04-17T15:15:36.467Z,4.15
2023-04-17T15:18:06.678Z,3.03
2023-04-17T15:20:37.715Z,3.88
2023-04-17T15:23:07.203Z,6.00
2023-04-17T15:25:36.614Z,3.40
2023-04-17T15:28:06.053Z,3.28
2023-04-17T15:30:35.512Z,3.50
2023-04-17T15:33:06.261Z,3.13
2023-04-17T15:35:38.202Z,4.13
2023-04-17T15:38:07.993Z,4.45
2023-04-17T15:40:37.449Z,3.53
2023-04-17T15:43:07.122Z,3.53
2023-04-17T15:45:36.832Z,4.65
2023-04-17T15:48:06.353Z,4.40
2023-04-17T15:50:37.760Z,4.38
2023-04-17T15:53:09.045Z,3.55
2023-04-17T15:55:38.629Z,4.85
2023-04-17T15:58:08.045Z,3.50
2023-04-17T16:00:37.537Z,3.70
2023-04-17T16:03:07.966Z,3.60
2023-04-17T16:05:39.038Z,3.30
2023-04-17T16:08:08.741Z,3.45
2023-04-17T16:10:38.559Z,4.55
2023-04-17T16:13:09.337Z,5.13
2023-04-17T16:15:38.899Z,5.25
2023-04-17T16:18:08.472Z,5.60
2023-04-17T16:20:40.068Z,6.10
2023-04-17T16:23:09.591Z,7.15
2023-04-17T16:25:39.352Z,5.35
2023-04-17T16:28:08.764Z,6.40
2023-04-17T16:30:38.267Z,6.32
2023-04-17T16:33:07.800Z,6.68
2023-04-17T16:35:38.775Z,6.50
2023-04-17T16:38:08.695Z,7.43
2023-04-17T16:40:38.196Z,8.88
2023-04-17T16:43:08.957Z,6.22
2023-04-17T16:45:38.670Z,9.18
2023-04-17T16:48:11.228Z,8.00
2023-04-17T16:50:42.208Z,8.52
2023-04-17T16:53:11.737Z,7.63
2023-04-17T16:55:41.553Z,8.35
2023-04-17T16:58:13.780Z,6.70
2023-04-17T17:00:43.402Z,5.97
2023-04-17T17:03:13.727Z,5.88
2023-04-17T17:05:51.881Z,5.68
2023-04-17T17:08:22.705Z,7.78
2023-04-17T17:10:52.725Z,5.13
2023-04-17T17:13:23.032Z,4.03
2023-04-17T17:15:52.585Z,3.65
2023-04-17T17:18:22.188Z,4.72
2023-04-17T17:20:55.902Z,3.95
2023-04-17T17:23:25.532Z,4.18
2023-04-17T17:25:55.185Z,3.85
2023-04-17T17:28:24.761Z,4.75
2023-04-17T17:31:01.826Z,3.85
2023-04-17T17:33:32.075Z,5.53
2023-04-17T17:36:04.117Z,4.82
2023-04-17T17:38:33.563Z,6.38
2023-04-17T17:41:04.254Z,5.43
2023-04-17T17:43:33.653Z,5.50
2023-04-17T17:46:03.169Z,6.18
2023-04-17T17:48:32.677Z,5.88
2023-04-17T17:51:03.468Z,6.07
2023-04-17T17:53:33.077Z,5.63
2023-04-17T17:56:02.612Z,6.57
2023-04-17T17:58:32.165Z,7.20
2023-04-17T18:01:01.625Z,6.05
2023-04-17T18:03:31.261Z,5.85
2023-04-17T18:06:02.236Z,6.32
2023-04-17T18:08:31.692Z,6.07
2023-04-17T18:11:02.472Z,6.20
2023-04-17T18:13:32.700Z,6.35
2023-04-17T18:16:05.301Z,5.00
2023-04-17T18:18:38.851Z,7.05
2023-04-17T18:21:11.796Z,6.10
2023-04-17T18:23:41.237Z,5.85
2023-04-17T18:26:10.709Z,6.18
2023-04-17T18:28:40.124Z,5.78
2023-04-17T18:31:09.617Z,6.90
2023-04-17T18:33:39.093Z,5.40
2023-04-17T18:36:10.547Z,6.10
2023-04-17T18:38:40.072Z,6.43
2023-04-17T18:41:09.552Z,7.28
2023-04-17T18:43:39.174Z,6.22
2023-04-17T18:46:08.625Z,5.32
2023-04-17T18:48:38.340Z,6.68
2023-04-17T18:51:14.549Z,6.68
2023-04-17T18:53:44.015Z,6.07
2023-04-17T18:56:15.065Z,7.28
2023-04-17T18:58:44.762Z,8.82
2023-04-17T19:01:14.501Z,7.75
2023-04-17T19:03:44.680Z,9.82
2023-04-17T19:06:15.438Z,8.30
2023-04-17T19:08:44.855Z,7.55
2023-04-17T19:11:17.124Z,11.63
2023-04-17T19:13:46.653Z,10.20
2023-04-17T19:16:16.241Z,11.57
2023-04-17T19:18:45.900Z,9.63
2023-04-17T19:21:17.125Z,10.77
2023-04-17T19:23:47.484Z,9.10
2023-04-17T19:26:17.349Z,10.60
2023-04-17T19:28:46.864Z,11.80
2023-04-17T19:31:16.442Z,11.52
2023-04-17T19:33:45.960Z,8.65
2023-04-17T19:36:17.253Z,8.40
2023-04-17T19:38:46.823Z,8.18
2023-04-17T19:41:18.769Z,9.55
2023-04-17T19:43:51.132Z,8.77
2023-04-17T19:46:23.129Z,9.23
2023-04-17T19:48:52.857Z,7.50
2023-04-17T19:51:23.853Z,7.60
2023-04-17T19:53:54.033Z,6.88
2023-04-17T19:56:24.099Z,6.30
2023-04-17T19:58:53.604Z,9.50
2023-04-17T20:01:23.103Z,5.78
2023-04-17T20:03:52.658Z,5.82
2023-04-17T20:06:23.796Z,5.28
2023-04-17T20:08:53.754Z,5.20
2023-04-17T20:11:23.655Z,4.78
2023-04-17T20:13:53.211Z,6.32
2023-04-17T20:16:23.933Z,6.20
2023-04-17T20:18:53.491Z,5.97
2023-04-17T20:21:24.705Z,7.07
2023-04-17T20:23:55.158Z,7.32
2023-04-17T20:26:24.680Z,8.80
2023-04-17T20:28:55.072Z,7.68
2023-04-17T20:31:24.724Z,8.13
2023-04-17T20:33:54.218Z,6.75
2023-04-17T20:36:25.027Z,7.05
2023-04-17T20:38:54.684Z,8.98
2023-04-17T20:41:24.219Z,5.82
2023-04-17T20:44:00.846Z,7.30
2023-04-17T20:46:31.661Z,6.70
2023-04-17T20:49:01.187Z,6.35
2023-04-17T20:51:32.233Z,5.80
2023-04-17T20:54:01.809Z,6.68
2023-04-17T20:56:31.293Z,8.80
2023-04-17T20:59:00.801Z,6.70
2023-04-17T21:01:30.511Z,6.22
2023-04-17T21:04:00.057Z,5.28
2023-04-17T21:06:30.985Z,5.32
2023-04-17T21:09:00.496Z,5.28
2023-04-17T21:11:30.011Z,4.93
2023-04-17T21:14:00.370Z,4.80
2023-04-17T21:16:31.050Z,5.35
2023-04-17T21:19:00.637Z,4.45
2023-04-17T21:21:31.441Z,4.72
2023-04-17T21:24:00.936Z,5.25
2023-04-17T21:26:30.630Z,3.75
2023-04-17T21:29:00.121Z,5.38
2023-04-17T21:31:29.659Z,5.43
2023-04-17T21:33:59.155Z,6.32
2023-04-17T21:36:28.635Z,5.22
2023-04-17T21:38:59.681Z,4.78
2023-04-17T21:41:31.171Z,4.78
2023-04-17T21:44:02.559Z,6.18
2023-04-17T21:46:32.209Z,4.90
2023-04-17T21:49:01.595Z,4.68
2023-04-17T21:51:34.601Z,4.68
2023-04-17T21:54:05.783Z,5.55
2023-04-17T21:56:35.243Z,5.28
2023-04-17T21:59:05.820Z,6.07
2023-04-17T22:01:35.438Z,7.97
2023-04-17T22:04:05.577Z,5.88
2023-04-17T22:06:36.890Z,5.57
2023-04-17T22:09:08.725Z,6.68
2023-04-17T22:11:40.318Z,7.40
2023-04-17T22:14:10.096Z,5.72
2023-04-17T22:16:39.658Z,5.43
2023-04-17T22:19:09.401Z,6.63
2023-04-17T22:21:38.844Z,6.40
2023-04-17T22:24:10.546Z,6.32
2023-04-17T22:26:40.258Z,5.60
2023-04-17T22:29:09.765Z,7.63
2023-04-17T22:31:40.400Z,9.40
2023-04-17T22:34:10.119Z,7.35
2023-04-17T22:36:39.717Z,5.43
2023-04-17T22:39:10.857Z,6.65
2023-04-17T22:41:40.560Z,6.80
2023-04-17T22:44:10.097Z,6.68
2023-04-17T22:46:39.771Z,6.68
2023-04-17T22:49:09.579Z,6.03
2023-04-17T22:51:39.194Z,7.32
2023-04-17T22:54:21.344Z,6.20
2023-04-17T22:56:52.029Z,6.28
2023-04-17T22:59:21.688Z,6.38
2023-04-17T23:01:51.532Z,7.85
2023-04-17T23:04:22.988Z,7.00
2023-04-17T23:06:52.611Z,7.93
2023-04-17T23:09:23.481Z,7.43
2023-04-17T23:11:52.984Z,7.07
2023-04-17T23:14:22.579Z,7.30
2023-04-17T23:16:52.881Z,7.50
2023-04-17T23:19:22.501Z,8.50
2023-04-17T23:21:52.000Z,8.00
2023-04-17T23:24:22.935Z,7.10
2023-04-17T23:26:52.380Z,7.07
2023-04-17T23:29:21.967Z,7.82
2023-04-17T23:31:51.597Z,7.88
2023-04-17T23:34:21.412Z,7.95
2023-04-17T23:36:51.128Z,10.18
2023-04-17T23:39:22.365Z,8.55
2023-04-17T23:41:52.224Z,8.80
2023-04-17T23:44:22.061Z,10.98
2023-04-17T23:46:51.699Z,10.20
2023-04-17T23:49:21.205Z,9.63
2023-04-17T23:51:50.671Z,9.63
2023-04-17T23:54:20.109Z,9.70
2023-04-17T23:56:51.171Z,9.98
2023-04-17T23:59:20.933Z,8.63
